Time,TemperatureF,DewpointF,PressureIn,WindDirection,WindDirectionDegrees,WindSpeedMPH,WindSpeedGustMPH,Humidity,HourlyPrecipIn,Conditions,Clouds,dailyrainin,SoftwareType,DateUTC
2013-11-14 19:32:00,43.3,21.2,0.00,North,0,0.0,0.0,41,0.00,,,0.00,VWS V12.08,2013-11-15 00:32:00,
2013-11-14 19:33:00,43.3,21.2,0.00,North,0,0.0,0.0,41,0.00,,,0.00,VWS V12.08,2013-11-15 00:33:00,
2013-11-14 19:38:00,43.2,21.1,0.00,North,0,0.0,0.0,41,0.00,,,0.00,VWS V12.08,2013-11-15 00:38:00,
2013-11-14 19:43:00,43.2,21.1,0.00,North,0,0.0,0.0,41,0.00,,,0.00,VWS V12.08,2013-11-15 00:43:00,
2013-11-14 19:48:00,43.0,20.9,0.00,North,0,0.0,0.0,41,0.00,,,0.00,VWS V12.08,2013-11-15 00:48:00,
2013-11-14 19:53:00,42.8,20.8,29.32,North,0,0.0,0.0,41,0.00,,,0.00,VWS V12.08,2013-11-15 00:53:00,
2013-11-14 19:58:00,42.6,20.6,29.32,North,0,0.0,0.0,41,0.00,,,0.00,VWS V12.08,2013-11-15 00:58:00,
2013-11-14 20:03:00,42.4,20.4,29.32,North,0,0.0,0.0,41,0.00,,,0.00,VWS V12.08,2013-11-15 01:03:00,
2013-11-14 20:08:00,42.4,20.4,29.32,North,0,0.0,0.0,41,0.00,,,0.00,VWS V12.08,2013-11-15 01:08:00,
2013-11-14 20:13:00,42.3,20.3,29.32,North,0,0.0,0.0,41,0.00,,,0.00,VWS V12.08,2013-11-15 01:13:00,
2013-11-14 20:18:00,42.1,20.1,29.32,North,0,0.0,0.0,41,0.00,,,0.00,VWS V12.08,2013-11-15 01:18:00,
2013-11-14 20:23:00,41.9,19.9,29.32,North,0,0.0,0.0,41,0.00,,,0.00,VWS V12.08,2013-11-15 01:23:00,
2013-11-14 20:28:00,41.9,19.9,29.32,North,0,0.0,0.0,41,0.00,,,0.00,VWS V12.08,2013-11-15 01:28:00,
2013-11-14 20:33:00,42.1,20.1,29.32,North,0,0.0,0.0,41,0.00,,,0.00,VWS V12.08,2013-11-15 01:33:00,
2013-11-14 20:38:00,41.9,19.9,29.32,North,0,0.0,0.0,41,0.00,,,0.00,VWS V12.08,2013-11-15 01:38:00,
2013-11-14 20:43:00,41.5,19.6,29.32,North,0,0.0,0.0,41,0.00,,,0.00,VWS V12.08,2013-11-15 01:43:00,
2013-11-14 20:48:00,41.4,19.5,29.32,North,0,0.0,0.0,41,0.00,,,0.00,VWS V12.08,2013-11-15 01:48:00,
2013-11-14 20:53:00,41.2,19.3,29.32,North,0,0.0,0.0,41,0.00,,,0.00,VWS V12.08,2013-11-15 01:53:00,
2013-11-14 20:58:00,41.0,19.1,29.32,North,0,0.0,0.0,41,0.00,,,0.00,VWS V12.08,2013-11-15 01:58:00,
2013-11-14 21:03:00,40.6,18.8,29.32,North,0,0.0,0.0,41,0.00,,,0.00,VWS V12.08,2013-11-15 02:03:00,
2013-11-14 21:08:00,40.6,18.8,29.32,North,0,0.0,0.0,41,0.00,,,0.00,VWS V12.08,2013-11-15 02:08:00,
2013-11-14 21:13:00,40.8,19.0,29.32,North,0,0.0,0.0,41,0.00,,,0.00,VWS V12.08,2013-11-15 02:13:00,
2013-11-14 21:18:00,41.7,19.8,29.32,North,0,0.0,0.0,41,0.00,,,0.00,VWS V12.08,2013-11-15 02:18:00,
2013-11-14 21:23:00,42.4,20.4,29.32,North,0,0.0,0.0,41,0.00,,,0.00,VWS V12.08,2013-11-15 02:23:00,
2013-11-14 21:28:00,43.3,21.2,29.32,North,0,0.0,0.0,41,0.00,,,0.00,VWS V12.08,2013-11-15 02:28:00,
2013-11-14 21:33:00,43.9,21.7,29.32,North,0,0.0,0.0,41,0.00,,,0.00,VWS V12.08,2013-11-15 02:33:00,
2013-11-14 21:38:00,44.1,21.9,29.32,North,0,0.0,0.0,41,0.00,,,0.00,VWS V12.08,2013-11-15 02:38:00,
2013-11-14 21:43:00,44.6,21.2,29.32,North,0,0.0,0.0,39,0.00,,,0.00,VWS V12.08,2013-11-15 02:43:00,
2013-11-14 21:48:00,44.4,22.2,29.32,North,0,0.0,0.0,41,0.00,,,0.00,VWS V12.08,2013-11-15 02:48:00,
2013-11-14 21:53:00,43.9,21.7,29.32,North,0,0.0,0.0,41,0.00,,,0.00,VWS V12.08,2013-11-15 02:53:00,
2013-11-14 21:58:00,43.7,21.6,29.32,North,0,0.0,0.0,41,0.00,,,0.00,VWS V12.08,2013-11-15 02:58:00,
2013-11-14 22:03:00,43.5,21.4,29.32,North,0,0.0,0.0,41,0.00,,,0.00,VWS V12.08,2013-11-15 03:03:00,
2013-11-14 22:08:00,43.2,21.1,29.32,North,0,0.0,0.0,41,0.00,,,0.00,VWS V12.08,2013-11-15 03:08:00,
2013-11-14 22:13:00,42.8,20.8,29.32,North,0,0.0,0.0,41,0.00,,,0.00,VWS V12.08,2013-11-15 03:13:00,
2013-11-14 22:18:00,42.6,20.6,29.32,North,0,0.0,0.0,41,0.00,,,0.00,VWS V12.08,2013-11-15 03:18:00,
2013-11-14 22:23:00,42.3,20.3,29.32,North,0,0.0,0.0,41,0.00,,,0.00,VWS V12.08,2013-11-15 03:23:00,
2013-11-14 22:28:00,41.9,19.9,29.32,North,0,0.0,0.0,41,0.00,,,0.00,VWS V12.08,2013-11-15 03:28:00,
2013-11-14 22:33:00,41.5,19.6,29.32,North,0,0.0,0.0,41,0.00,,,0.00,VWS V12.08,2013-11-15 03:33:00,
2013-11-14 22:38:00,41.2,19.3,29.32,North,0,0.0,0.0,41,0.00,,,0.00,VWS V12.08,2013-11-15 03:38:00,
2013-11-14 22:43:00,41.0,19.1,29.32,North,0,0.0,0.0,41,0.00,,,0.00,VWS V12.08,2013-11-15 03:43:00,
2013-11-14 22:48:00,40.8,19.0,29.32,North,0,0.0,0.0,41,0.00,,,0.00,VWS V12.08,2013-11-15 03:48:00,
2013-11-14 22:53:00,40.6,18.8,29.32,North,0,0.0,0.0,41,0.00,,,0.00,VWS V12.08,2013-11-15 03:53:00,
2013-11-14 22:58:00,40.3,18.5,29.32,North,0,0.0,0.0,41,0.00,,,0.00,VWS V12.08,2013-11-15 03:58:00,
2013-11-14 23:03:00,40.3,18.5,29.32,North,0,0.0,0.0,41,0.00,,,0.00,VWS V12.08,2013-11-15 04:03:00,
2013-11-14 23:08:00,39.9,18.1,29.32,North,0,0.0,0.0,41,0.00,,,0.00,VWS V12.08,2013-11-15 04:08:00,
2013-11-14 23:13:00,40.1,18.3,29.35,North,0,0.0,0.0,41,0.00,,,0.00,VWS V12.08,2013-11-15 04:13:00,
2013-11-14 23:18:00,40.5,18.6,29.35,North,0,0.0,0.0,41,0.00,,,0.00,VWS V12.08,2013-11-15 04:18:00,
2013-11-14 23:23:00,40.3,18.5,29.35,North,0,0.0,0.0,41,0.00,,,0.00,VWS V12.08,2013-11-15 04:23:00,
2013-11-14 23:28:00,40.3,18.5,29.32,North,0,0.0,0.0,41,0.00,,,0.00,VWS V12.08,2013-11-15 04:28:00,
2013-11-14 23:33:00,40.5,18.6,29.32,North,0,0.0,0.0,41,0.00,,,0.00,VWS V12.08,2013-11-15 04:33:00,
2013-11-14 23:38:00,40.5,18.6,29.32,North,0,0.0,0.0,41,0.00,,,0.00,VWS V12.08,2013-11-15 04:38:00,
2013-11-14 23:43:00,40.5,18.6,29.32,North,0,0.0,0.0,41,0.00,,,0.00,VWS V12.08,2013-11-15 04:43:00,
2013-11-14 23:48:00,40.5,18.6,29.32,North,0,0.0,0.0,41,0.00,,,0.00,VWS V12.08,2013-11-15 04:48:00,
2013-11-14 23:53:00,40.3,18.5,29.32,North,0,0.0,0.0,41,0.00,,,0.00,VWS V12.08,2013-11-15 04:53:00,
2013-11-14 23:58:00,40.5,18.6,29.32,North,0,0.0,0.0,41,0.00,,,0.00,VWS V12.08,2013-11-15 04:58:00,